sensor_id;sensor_type;location;lat;lon;timestamp;P1;durP1;ratioP1;P2;durP2;ratioP2
78648;SDS011;67962;47.310;9.642;2023-03-26T00:01:25;11.93;;;3.33;;
78648;SDS011;67962;47.310;9.642;2023-03-26T00:03:53;6.95;;;2.63;;
78648;SDS011;67962;47.310;9.642;2023-03-26T00:06:21;6.97;;;1.80;;
78648;SDS011;67962;47.310;9.642;2023-03-26T00:09:00;7.13;;;1.77;;
78648;SDS011;67962;47.310;9.642;2023-03-26T00:11:27;4.35;;;1.77;;
78648;SDS011;67962;47.310;9.642;2023-03-26T00:13:54;5.93;;;1.95;;
78648;SDS011;67962;47.310;9.642;2023-03-26T00:16:24;7.53;;;1.90;;
78648;SDS011;67962;47.310;9.642;2023-03-26T00:18:52;5.72;;;1.83;;
78648;SDS011;67962;47.310;9.642;2023-03-26T00:21:20;4.05;;;1.70;;
78648;SDS011;67962;47.310;9.642;2023-03-26T00:23:51;2.80;;;1.70;;
78648;SDS011;67962;47.310;9.642;2023-03-26T00:26:19;7.57;;;1.90;;
78648;SDS011;67962;47.310;9.642;2023-03-26T00:28:45;4.18;;;2.03;;
78648;SDS011;67962;47.310;9.642;2023-03-26T00:31:12;2.97;;;1.50;;
78648;SDS011;67962;47.310;9.642;2023-03-26T00:33:39;7.07;;;1.95;;
78648;SDS011;67962;47.310;9.642;2023-03-26T00:36:07;3.20;;;1.52;;
78648;SDS011;67962;47.310;9.642;2023-03-26T00:38:41;4.35;;;1.45;;
78648;SDS011;67962;47.310;9.642;2023-03-26T00:41:09;3.97;;;1.30;;
78648;SDS011;67962;47.310;9.642;2023-03-26T00:43:47;4.30;;;1.30;;
78648;SDS011;67962;47.310;9.642;2023-03-26T00:46:14;4.45;;;1.70;;
78648;SDS011;67962;47.310;9.642;2023-03-26T00:48:42;6.90;;;2.00;;
78648;SDS011;67962;47.310;9.642;2023-03-26T00:51:08;11.65;;;1.92;;
78648;SDS011;67962;47.310;9.642;2023-03-26T00:53:35;6.72;;;2.10;;
78648;SDS011;67962;47.310;9.642;2023-03-26T00:56:03;9.38;;;1.77;;
78648;SDS011;67962;47.310;9.642;2023-03-26T00:58:30;4.40;;;1.52;;
78648;SDS011;67962;47.310;9.642;2023-03-26T01:00:58;2.25;;;1.27;;
78648;SDS011;67962;47.310;9.642;2023-03-26T01:03:27;3.60;;;1.60;;
78648;SDS011;67962;47.310;9.642;2023-03-26T01:05:57;3.75;;;1.17;;
78648;SDS011;67962;47.310;9.642;2023-03-26T01:08:45;3.45;;;1.27;;
78648;SDS011;67962;47.310;9.642;2023-03-26T01:11:15;3.33;;;1.40;;
78648;SDS011;67962;47.310;9.642;2023-03-26T01:14:00;2.95;;;1.40;;
78648;SDS011;67962;47.310;9.642;2023-03-26T01:16:35;2.13;;;1.20;;
78648;SDS011;67962;47.310;9.642;2023-03-26T01:19:20;3.20;;;1.10;;
78648;SDS011;67962;47.310;9.642;2023-03-26T01:22:08;3.97;;;1.45;;
78648;SDS011;67962;47.310;9.642;2023-03-26T01:24:39;2.85;;;1.20;;
78648;SDS011;67962;47.310;9.642;2023-03-26T01:30:36;2.80;;;1.10;;
78648;SDS011;67962;47.310;9.642;2023-03-26T01:39:07;1.92;;;0.90;;
78648;SDS011;67962;47.310;9.642;2023-03-26T01:44:55;3.22;;;0.80;;
78648;SDS011;67962;47.310;9.642;2023-03-26T01:47:08;6.05;;;1.00;;
78648;SDS011;67962;47.310;9.642;2023-03-26T01:49:36;3.00;;;1.00;;
78648;SDS011;67962;47.310;9.642;2023-03-26T01:52:05;3.03;;;0.90;;
78648;SDS011;67962;47.310;9.642;2023-03-26T01:54:36;4.53;;;0.95;;
78648;SDS011;67962;47.310;9.642;2023-03-26T01:59:48;4.05;;;0.88;;
78648;SDS011;67962;47.310;9.642;2023-03-26T02:10:46;11.90;;;1.25;;
78648;SDS011;67962;47.310;9.642;2023-03-26T02:13:21;3.10;;;1.20;;
78648;SDS011;67962;47.310;9.642;2023-03-26T02:15:59;3.45;;;0.98;;
78648;SDS011;67962;47.310;9.642;2023-03-26T02:18:25;3.10;;;1.20;;
78648;SDS011;67962;47.310;9.642;2023-03-26T02:21:05;1.45;;;0.95;;
78648;SDS011;67962;47.310;9.642;2023-03-26T02:23:46;2.00;;;1.20;;
78648;SDS011;67962;47.310;9.642;2023-03-26T02:26:22;3.75;;;1.48;;
78648;SDS011;67962;47.310;9.642;2023-03-26T02:28:48;1.92;;;1.10;;
78648;SDS011;67962;47.310;9.642;2023-03-26T02:31:14;5.35;;;1.10;;
78648;SDS011;67962;47.310;9.642;2023-03-26T02:33:41;4.03;;;1.05;;
78648;SDS011;67962;47.310;9.642;2023-03-26T02:36:08;2.65;;;1.30;;
78648;SDS011;67962;47.310;9.642;2023-03-26T02:38:38;4.20;;;1.20;;
78648;SDS011;67962;47.310;9.642;2023-03-26T02:41:04;2.85;;;1.15;;
78648;SDS011;67962;47.310;9.642;2023-03-26T02:43:30;5.25;;;1.35;;
78648;SDS011;67962;47.310;9.642;2023-03-26T02:45:55;4.55;;;1.45;;
78648;SDS011;67962;47.310;9.642;2023-03-26T02:48:21;2.97;;;1.20;;
78648;SDS011;67962;47.310;9.642;2023-03-26T02:50:47;3.88;;;1.13;;
78648;SDS011;67962;47.310;9.642;2023-03-26T02:53:21;1.80;;;0.90;;
78648;SDS011;67962;47.310;9.642;2023-03-26T02:55:48;2.30;;;1.20;;
78648;SDS011;67962;47.310;9.642;2023-03-26T02:58:14;4.65;;;1.30;;
78648;SDS011;67962;47.310;9.642;2023-03-26T03:00:42;4.13;;;1.20;;
78648;SDS011;67962;47.310;9.642;2023-03-26T03:03:08;2.35;;;1.15;;
78648;SDS011;67962;47.310;9.642;2023-03-26T03:05:34;1.25;;;0.88;;
78648;SDS011;67962;47.310;9.642;2023-03-26T03:08:02;3.55;;;1.08;;
78648;SDS011;67962;47.310;9.642;2023-03-26T03:10:28;2.25;;;1.05;;
78648;SDS011;67962;47.310;9.642;2023-03-26T03:12:56;2.58;;;1.00;;
78648;SDS011;67962;47.310;9.642;2023-03-26T03:15:22;2.13;;;0.90;;
78648;SDS011;67962;47.310;9.642;2023-03-26T03:17:48;1.40;;;0.85;;
78648;SDS011;67962;47.310;9.642;2023-03-26T03:20:14;1.60;;;1.00;;
78648;SDS011;67962;47.310;9.642;2023-03-26T03:22:40;4.10;;;1.20;;
78648;SDS011;67962;47.310;9.642;2023-03-26T03:25:06;2.35;;;1.00;;
78648;SDS011;67962;47.310;9.642;2023-03-26T03:27:34;4.32;;;1.20;;
78648;SDS011;67962;47.310;9.642;2023-03-26T03:30:03;1.52;;;0.98;;
78648;SDS011;67962;47.310;9.642;2023-03-26T03:32:30;2.47;;;1.20;;
78648;SDS011;67962;47.310;9.642;2023-03-26T03:34:55;6.05;;;1.38;;
78648;SDS011;67962;47.310;9.642;2023-03-26T03:37:21;3.60;;;0.90;;
78648;SDS011;67962;47.310;9.642;2023-03-26T03:39:47;1.33;;;1.00;;
78648;SDS011;67962;47.310;9.642;2023-03-26T03:42:13;1.77;;;0.85;;
78648;SDS011;67962;47.310;9.642;2023-03-26T03:44:38;2.45;;;1.08;;
78648;SDS011;67962;47.310;9.642;2023-03-26T03:47:04;3.38;;;0.75;;
78648;SDS011;67962;47.310;9.642;2023-03-26T03:49:31;5.43;;;1.00;;
78648;SDS011;67962;47.310;9.642;2023-03-26T03:51:56;6.00;;;1.08;;
78648;SDS011;67962;47.310;9.642;2023-03-26T03:54:22;4.85;;;1.00;;
78648;SDS011;67962;47.310;9.642;2023-03-26T03:56:48;5.63;;;1.05;;
78648;SDS011;67962;47.310;9.642;2023-03-26T03:59:14;4.32;;;1.10;;
78648;SDS011;67962;47.310;9.642;2023-03-26T04:01:40;3.78;;;1.00;;
78648;SDS011;67962;47.310;9.642;2023-03-26T04:04:11;2.00;;;1.08;;
78648;SDS011;67962;47.310;9.642;2023-03-26T04:06:36;4.10;;;1.15;;
78648;SDS011;67962;47.310;9.642;2023-03-26T04:09:02;2.47;;;1.63;;
78648;SDS011;67962;47.310;9.642;2023-03-26T04:11:28;2.58;;;1.20;;
78648;SDS011;67962;47.310;9.642;2023-03-26T04:13:54;2.22;;;1.13;;
78648;SDS011;67962;47.310;9.642;2023-03-26T04:16:20;1.98;;;0.70;;
78648;SDS011;67962;47.310;9.642;2023-03-26T04:18:45;1.92;;;1.20;;
78648;SDS011;67962;47.310;9.642;2023-03-26T04:21:11;1.55;;;1.00;;
78648;SDS011;67962;47.310;9.642;2023-03-26T04:23:40;3.35;;;0.95;;
78648;SDS011;67962;47.310;9.642;2023-03-26T04:26:06;2.45;;;1.00;;
78648;SDS011;67962;47.310;9.642;2023-03-26T04:28:51;7.03;;;1.20;;
78648;SDS011;67962;47.310;9.642;2023-03-26T04:31:24;4.38;;;1.20;;
78648;SDS011;67962;47.310;9.642;2023-03-26T04:33:58;2.20;;;0.93;;
78648;SDS011;67962;47.310;9.642;2023-03-26T04:36:31;1.30;;;0.85;;
78648;SDS011;67962;47.310;9.642;2023-03-26T04:38:59;3.10;;;1.00;;
78648;SDS011;67962;47.310;9.642;2023-03-26T04:41:27;2.00;;;0.93;;
78648;SDS011;67962;47.310;9.642;2023-03-26T04:43:54;4.30;;;1.02;;
78648;SDS011;67962;47.310;9.642;2023-03-26T04:46:20;1.98;;;0.80;;
78648;SDS011;67962;47.310;9.642;2023-03-26T04:48:50;2.50;;;1.00;;
78648;SDS011;67962;47.310;9.642;2023-03-26T04:51:18;3.65;;;0.90;;
78648;SDS011;67962;47.310;9.642;2023-03-26T04:53:57;1.38;;;0.73;;
78648;SDS011;67962;47.310;9.642;2023-03-26T04:59:09;2.15;;;1.02;;
78648;SDS011;67962;47.310;9.642;2023-03-26T05:01:39;3.42;;;1.20;;
78648;SDS011;67962;47.310;9.642;2023-03-26T05:04:05;1.77;;;0.90;;
78648;SDS011;67962;47.310;9.642;2023-03-26T05:06:31;2.80;;;1.17;;
78648;SDS011;67962;47.310;9.642;2023-03-26T05:08:58;3.00;;;0.80;;
78648;SDS011;67962;47.310;9.642;2023-03-26T05:11:26;5.50;;;1.33;;
78648;SDS011;67962;47.310;9.642;2023-03-26T05:13:52;4.47;;;1.25;;
78648;SDS011;67962;47.310;9.642;2023-03-26T05:16:17;7.25;;;4.75;;
78648;SDS011;67962;47.310;9.642;2023-03-26T05:18:44;6.45;;;2.63;;
78648;SDS011;67962;47.310;9.642;2023-03-26T05:21:10;4.78;;;2.60;;
78648;SDS011;67962;47.310;9.642;2023-03-26T05:23:36;4.30;;;2.33;;
78648;SDS011;67962;47.310;9.642;2023-03-26T05:26:02;2.15;;;1.20;;
78648;SDS011;67962;47.310;9.642;2023-03-26T05:28:28;1.98;;;1.40;;
78648;SDS011;67962;47.310;9.642;2023-03-26T05:30:54;3.55;;;1.20;;
78648;SDS011;67962;47.310;9.642;2023-03-26T05:33:20;5.35;;;1.85;;
78648;SDS011;67962;47.310;9.642;2023-03-26T05:35:46;6.53;;;1.90;;
78648;SDS011;67962;47.310;9.642;2023-03-26T05:38:22;3.83;;;1.80;;
78648;SDS011;67962;47.310;9.642;2023-03-26T05:40:48;5.95;;;1.80;;
78648;SDS011;67962;47.310;9.642;2023-03-26T05:43:13;4.70;;;1.27;;
78648;SDS011;67962;47.310;9.642;2023-03-26T05:45:39;4.43;;;1.00;;
78648;SDS011;67962;47.310;9.642;2023-03-26T05:48:05;3.05;;;0.82;;
78648;SDS011;67962;47.310;9.642;2023-03-26T05:50:30;2.40;;;0.93;;
78648;SDS011;67962;47.310;9.642;2023-03-26T05:52:56;3.05;;;0.93;;
78648;SDS011;67962;47.310;9.642;2023-03-26T05:55:22;2.53;;;0.80;;
78648;SDS011;67962;47.310;9.642;2023-03-26T05:57:47;4.07;;;1.17;;
78648;SDS011;67962;47.310;9.642;2023-03-26T06:00:13;1.77;;;1.08;;
78648;SDS011;67962;47.310;9.642;2023-03-26T06:02:39;1.67;;;1.20;;
78648;SDS011;67962;47.310;9.642;2023-03-26T06:05:06;3.05;;;1.20;;
78648;SDS011;67962;47.310;9.642;2023-03-26T06:07:34;1.70;;;1.20;;
78648;SDS011;67962;47.310;9.642;2023-03-26T06:10:00;4.25;;;1.20;;
78648;SDS011;67962;47.310;9.642;2023-03-26T06:12:26;4.28;;;1.55;;
78648;SDS011;67962;47.310;9.642;2023-03-26T06:14:52;3.85;;;1.50;;
78648;SDS011;67962;47.310;9.642;2023-03-26T06:17:18;3.38;;;1.42;;
78648;SDS011;67962;47.310;9.642;2023-03-26T06:19:44;2.00;;;1.20;;
78648;SDS011;67962;47.310;9.642;2023-03-26T06:22:09;1.30;;;0.98;;
78648;SDS011;67962;47.310;9.642;2023-03-26T06:24:36;1.85;;;1.23;;
78648;SDS011;67962;47.310;9.642;2023-03-26T06:27:02;3.17;;;1.10;;
78648;SDS011;67962;47.310;9.642;2023-03-26T06:29:27;3.78;;;1.15;;
78648;SDS011;67962;47.310;9.642;2023-03-26T06:31:53;1.83;;;0.90;;
78648;SDS011;67962;47.310;9.642;2023-03-26T06:34:19;3.67;;;1.10;;
78648;SDS011;67962;47.310;9.642;2023-03-26T06:36:45;1.70;;;1.00;;
78648;SDS011;67962;47.310;9.642;2023-03-26T06:39:12;2.05;;;1.08;;
78648;SDS011;67962;47.310;9.642;2023-03-26T06:41:39;2.42;;;1.10;;
78648;SDS011;67962;47.310;9.642;2023-03-26T06:44:05;1.60;;;1.30;;
78648;SDS011;67962;47.310;9.642;2023-03-26T06:46:31;3.90;;;1.67;;
78648;SDS011;67962;47.310;9.642;2023-03-26T06:48:56;2.33;;;1.30;;
78648;SDS011;67962;47.310;9.642;2023-03-26T06:51:23;2.78;;;1.25;;
78648;SDS011;67962;47.310;9.642;2023-03-26T06:53:49;1.88;;;1.20;;
78648;SDS011;67962;47.310;9.642;2023-03-26T06:56:15;2.33;;;1.17;;
78648;SDS011;67962;47.310;9.642;2023-03-26T06:58:40;3.58;;;1.10;;
78648;SDS011;67962;47.310;9.642;2023-03-26T07:01:06;2.03;;;0.80;;
78648;SDS011;67962;47.310;9.642;2023-03-26T07:03:32;3.75;;;1.00;;
78648;SDS011;67962;47.310;9.642;2023-03-26T07:05:57;3.25;;;2.10;;
78648;SDS011;67962;47.310;9.642;2023-03-26T07:08:23;5.95;;;2.70;;
78648;SDS011;67962;47.310;9.642;2023-03-26T07:10:49;7.22;;;2.55;;
78648;SDS011;67962;47.310;9.642;2023-03-26T07:13:15;6.43;;;2.60;;
78648;SDS011;67962;47.310;9.642;2023-03-26T07:15:40;4.70;;;1.98;;
78648;SDS011;67962;47.310;9.642;2023-03-26T07:18:06;3.28;;;1.60;;
78648;SDS011;67962;47.310;9.642;2023-03-26T07:20:32;7.32;;;1.33;;
78648;SDS011;67962;47.310;9.642;2023-03-26T07:22:58;1.58;;;0.88;;
78648;SDS011;67962;47.310;9.642;2023-03-26T07:25:24;1.80;;;1.00;;
78648;SDS011;67962;47.310;9.642;2023-03-26T07:30:27;2.15;;;1.20;;
78648;SDS011;67962;47.310;9.642;2023-03-26T07:33:05;3.38;;;1.15;;
78648;SDS011;67962;47.310;9.642;2023-03-26T07:35:45;3.72;;;0.93;;
78648;SDS011;67962;47.310;9.642;2023-03-26T07:44:06;8.18;;;4.80;;
78648;SDS011;67962;47.310;9.642;2023-03-26T07:46:55;6.53;;;4.80;;
78648;SDS011;67962;47.310;9.642;2023-03-26T07:49:24;6.80;;;4.43;;
78648;SDS011;67962;47.310;9.642;2023-03-26T07:51:51;9.75;;;5.32;;
78648;SDS011;67962;47.310;9.642;2023-03-26T07:54:17;4.72;;;2.67;;
78648;SDS011;67962;47.310;9.642;2023-03-26T07:56:59;7.97;;;3.15;;
78648;SDS011;67962;47.310;9.642;2023-03-26T08:02:31;3.88;;;1.90;;
78648;SDS011;67962;47.310;9.642;2023-03-26T08:12:47;8.07;;;2.83;;
78648;SDS011;67962;47.310;9.642;2023-03-26T08:20:44;5.75;;;3.40;;
78648;SDS011;67962;47.310;9.642;2023-03-26T08:28:40;7.55;;;3.45;;
78648;SDS011;67962;47.310;9.642;2023-03-26T08:31:34;9.40;;;4.53;;
78648;SDS011;67962;47.310;9.642;2023-03-26T08:34:03;4.30;;;3.20;;
78648;SDS011;67962;47.310;9.642;2023-03-26T08:36:29;4.57;;;3.00;;
78648;SDS011;67962;47.310;9.642;2023-03-26T08:38:55;4.75;;;2.90;;
78648;SDS011;67962;47.310;9.642;2023-03-26T09:00:38;11.30;;;5.40;;
78648;SDS011;67962;47.310;9.642;2023-03-26T09:14:10;9.57;;;5.40;;
78648;SDS011;67962;47.310;9.642;2023-03-26T09:42:29;2.22;;;0.80;;
78648;SDS011;67962;47.310;9.642;2023-03-26T10:17:30;3.90;;;1.48;;
78648;SDS011;67962;47.310;9.642;2023-03-26T10:20:06;3.92;;;1.33;;
78648;SDS011;67962;47.310;9.642;2023-03-26T10:36:26;4.28;;;1.40;;
78648;SDS011;67962;47.310;9.642;2023-03-26T10:50:53;3.88;;;1.60;;
78648;SDS011;67962;47.310;9.642;2023-03-26T10:58:56;1.58;;;1.00;;
78648;SDS011;67962;47.310;9.642;2023-03-26T11:07:31;1.42;;;0.95;;
78648;SDS011;67962;47.310;9.642;2023-03-26T11:10:20;2.05;;;0.98;;
78648;SDS011;67962;47.310;9.642;2023-03-26T11:13:02;2.13;;;1.00;;
78648;SDS011;67962;47.310;9.642;2023-03-26T11:15:37;2.08;;;1.13;;
78648;SDS011;67962;47.310;9.642;2023-03-26T11:20:56;2.28;;;1.13;;
78648;SDS011;67962;47.310;9.642;2023-03-26T11:23:36;2.15;;;0.95;;
78648;SDS011;67962;47.310;9.642;2023-03-26T11:34:21;2.42;;;0.90;;
78648;SDS011;67962;47.310;9.642;2023-03-26T11:36:55;1.20;;;0.73;;
78648;SDS011;67962;47.310;9.642;2023-03-26T11:39:24;0.90;;;0.70;;
78648;SDS011;67962;47.310;9.642;2023-03-26T11:42:04;1.25;;;0.77;;
78648;SDS011;67962;47.310;9.642;2023-03-26T11:44:36;3.10;;;1.50;;
78648;SDS011;67962;47.310;9.642;2023-03-26T11:47:27;1.75;;;0.90;;
78648;SDS011;67962;47.310;9.642;2023-03-26T11:49:57;3.60;;;1.20;;
78648;SDS011;67962;47.310;9.642;2023-03-26T11:52:25;3.10;;;1.50;;
78648;SDS011;67962;47.310;9.642;2023-03-26T11:54:51;4.40;;;1.88;;
78648;SDS011;67962;47.310;9.642;2023-03-26T11:57:19;6.05;;;1.77;;
78648;SDS011;67962;47.310;9.642;2023-03-26T12:02:36;4.20;;;2.03;;
78648;SDS011;67962;47.310;9.642;2023-03-26T12:05:19;3.85;;;2.15;;
78648;SDS011;67962;47.310;9.642;2023-03-26T12:10:22;3.10;;;0.90;;
78648;SDS011;67962;47.310;9.642;2023-03-26T12:12:51;1.63;;;0.90;;
78648;SDS011;67962;47.310;9.642;2023-03-26T12:15:20;5.70;;;2.22;;
78648;SDS011;67962;47.310;9.642;2023-03-26T12:17:47;3.20;;;1.58;;
78648;SDS011;67962;47.310;9.642;2023-03-26T12:22:55;2.42;;;1.52;;
78648;SDS011;67962;47.310;9.642;2023-03-26T12:27:58;1.70;;;1.20;;
78648;SDS011;67962;47.310;9.642;2023-03-26T12:30:32;4.22;;;1.45;;
78648;SDS011;67962;47.310;9.642;2023-03-26T12:36:14;1.95;;;1.10;;
78648;SDS011;67962;47.310;9.642;2023-03-26T12:38:44;1.70;;;1.20;;
78648;SDS011;67962;47.310;9.642;2023-03-26T12:41:17;2.60;;;0.90;;
78648;SDS011;67962;47.310;9.642;2023-03-26T12:43:51;2.50;;;1.00;;
78648;SDS011;67962;47.310;9.642;2023-03-26T12:49:00;1.58;;;0.93;;
78648;SDS011;67962;47.310;9.642;2023-03-26T12:51:42;1.60;;;1.00;;
78648;SDS011;67962;47.310;9.642;2023-03-26T12:54:18;1.65;;;1.13;;
78648;SDS011;67962;47.310;9.642;2023-03-26T13:02:56;1.00;;;0.60;;
78648;SDS011;67962;47.310;9.642;2023-03-26T13:08:35;1.25;;;0.90;;
78648;SDS011;67962;47.310;9.642;2023-03-26T13:22:37;1.98;;;0.90;;
78648;SDS011;67962;47.310;9.642;2023-03-26T13:25:59;1.40;;;0.70;;
78648;SDS011;67962;47.310;9.642;2023-03-26T13:29:17;1.38;;;0.88;;
78648;SDS011;67962;47.310;9.642;2023-03-26T13:42:50;1.58;;;0.70;;
78648;SDS011;67962;47.310;9.642;2023-03-26T13:51:20;2.13;;;1.08;;
78648;SDS011;67962;47.310;9.642;2023-03-26T13:57:42;5.13;;;1.05;;
78648;SDS011;67962;47.310;9.642;2023-03-26T13:59:55;1.77;;;0.70;;
78648;SDS011;67962;47.310;9.642;2023-03-26T14:02:41;2.50;;;1.92;;
78648;SDS011;67962;47.310;9.642;2023-03-26T14:05:25;1.20;;;1.00;;
78648;SDS011;67962;47.310;9.642;2023-03-26T14:10:46;1.63;;;0.95;;
78648;SDS011;67962;47.310;9.642;2023-03-26T14:13:53;3.15;;;0.90;;
78648;SDS011;67962;47.310;9.642;2023-03-26T14:16:26;1.90;;;1.13;;
78648;SDS011;67962;47.310;9.642;2023-03-26T14:30:16;1.00;;;0.90;;
78648;SDS011;67962;47.310;9.642;2023-03-26T14:32:56;3.85;;;1.60;;
78648;SDS011;67962;47.310;9.642;2023-03-26T14:38:26;2.00;;;1.00;;
78648;SDS011;67962;47.310;9.642;2023-03-26T14:52:20;2.65;;;0.70;;
78648;SDS011;67962;47.310;9.642;2023-03-26T14:54:49;2.33;;;0.90;;
78648;SDS011;67962;47.310;9.642;2023-03-26T15:00:20;1.58;;;0.90;;
78648;SDS011;67962;47.310;9.642;2023-03-26T15:37:17;2.42;;;1.40;;
78648;SDS011;67962;47.310;9.642;2023-03-26T15:48:06;10.10;;;3.42;;
78648;SDS011;67962;47.310;9.642;2023-03-26T16:08:47;1.83;;;0.80;;
78648;SDS011;67962;47.310;9.642;2023-03-26T16:17:17;1.08;;;0.50;;
78648;SDS011;67962;47.310;9.642;2023-03-26T16:23:24;1.42;;;0.70;;
78648;SDS011;67962;47.310;9.642;2023-03-26T16:31:19;1.05;;;0.60;;
78648;SDS011;67962;47.310;9.642;2023-03-26T16:36:35;0.55;;;0.47;;
78648;SDS011;67962;47.310;9.642;2023-03-26T16:47:07;0.85;;;0.50;;
78648;SDS011;67962;47.310;9.642;2023-03-26T16:55:20;2.35;;;0.55;;
78648;SDS011;67962;47.310;9.642;2023-03-26T16:58:28;2.78;;;1.90;;
78648;SDS011;67962;47.310;9.642;2023-03-26T17:01:16;2.40;;;1.05;;
78648;SDS011;67962;47.310;9.642;2023-03-26T17:04:19;3.50;;;1.00;;
78648;SDS011;67962;47.310;9.642;2023-03-26T17:07:09;1.17;;;0.55;;
78648;SDS011;67962;47.310;9.642;2023-03-26T17:12:36;2.35;;;1.30;;
78648;SDS011;67962;47.310;9.642;2023-03-26T17:36:59;0.63;;;0.30;;
78648;SDS011;67962;47.310;9.642;2023-03-26T17:42:10;0.38;;;0.32;;
78648;SDS011;67962;47.310;9.642;2023-03-26T17:44:41;0.45;;;0.40;;
78648;SDS011;67962;47.310;9.642;2023-03-26T17:47:38;0.40;;;0.40;;
78648;SDS011;67962;47.310;9.642;2023-03-26T17:52:54;0.30;;;0.30;;
78648;SDS011;67962;47.310;9.642;2023-03-26T17:55:29;0.85;;;0.50;;
78648;SDS011;67962;47.310;9.642;2023-03-26T17:58:04;0.73;;;0.60;;
78648;SDS011;67962;47.310;9.642;2023-03-26T18:03:53;0.95;;;0.75;;
78648;SDS011;67962;47.310;9.642;2023-03-26T18:17:44;1.30;;;0.90;;
78648;SDS011;67962;47.310;9.642;2023-03-26T18:20:22;2.22;;;0.60;;
78648;SDS011;67962;47.310;9.642;2023-03-26T18:22:51;2.60;;;0.50;;
78648;SDS011;67962;47.310;9.642;2023-03-26T18:25:22;0.40;;;0.40;;
78648;SDS011;67962;47.310;9.642;2023-03-26T18:27:54;0.70;;;0.70;;
78648;SDS011;67962;47.310;9.642;2023-03-26T18:30:22;3.50;;;1.05;;
78648;SDS011;67962;47.310;9.642;2023-03-26T18:32:53;2.08;;;1.35;;
78648;SDS011;67962;47.310;9.642;2023-03-26T18:35:23;2.65;;;1.65;;
78648;SDS011;67962;47.310;9.642;2023-03-26T18:37:51;4.22;;;1.10;;
78648;SDS011;67962;47.310;9.642;2023-03-26T18:43:21;0.70;;;0.70;;
78648;SDS011;67962;47.310;9.642;2023-03-26T18:45:49;0.82;;;0.60;;
78648;SDS011;67962;47.310;9.642;2023-03-26T18:48:22;0.80;;;0.70;;
78648;SDS011;67962;47.310;9.642;2023-03-26T18:50:51;2.60;;;1.50;;
78648;SDS011;67962;47.310;9.642;2023-03-26T18:53:27;0.77;;;0.70;;
78648;SDS011;67962;47.310;9.642;2023-03-26T18:55:56;1.02;;;0.90;;
78648;SDS011;67962;47.310;9.642;2023-03-26T19:00:51;2.22;;;1.60;;
78648;SDS011;67962;47.310;9.642;2023-03-26T19:03:24;1.25;;;0.90;;
78648;SDS011;67962;47.310;9.642;2023-03-26T19:05:51;1.63;;;1.30;;
78648;SDS011;67962;47.310;9.642;2023-03-26T19:08:20;2.40;;;0.82;;
78648;SDS011;67962;47.310;9.642;2023-03-26T19:10:48;1.67;;;1.00;;
78648;SDS011;67962;47.310;9.642;2023-03-26T19:15:51;1.90;;;1.52;;
78648;SDS011;67962;47.310;9.642;2023-03-26T19:18:21;1.17;;;0.80;;
78648;SDS011;67962;47.310;9.642;2023-03-26T19:20:56;1.73;;;0.80;;
78648;SDS011;67962;47.310;9.642;2023-03-26T19:23:30;2.78;;;0.80;;
78648;SDS011;67962;47.310;9.642;2023-03-26T19:26:01;1.40;;;0.82;;
78648;SDS011;67962;47.310;9.642;2023-03-26T19:28:30;0.93;;;0.50;;
78648;SDS011;67962;47.310;9.642;2023-03-26T19:31:10;0.50;;;0.30;;
78648;SDS011;67962;47.310;9.642;2023-03-26T19:33:58;3.08;;;1.60;;
78648;SDS011;67962;47.310;9.642;2023-03-26T19:36:49;1.63;;;1.00;;
78648;SDS011;67962;47.310;9.642;2023-03-26T19:39:22;1.50;;;0.85;;
78648;SDS011;67962;47.310;9.642;2023-03-26T19:42:28;1.80;;;0.80;;
78648;SDS011;67962;47.310;9.642;2023-03-26T19:45:00;4.88;;;0.93;;
78648;SDS011;67962;47.310;9.642;2023-03-26T19:47:38;2.55;;;0.80;;
78648;SDS011;67962;47.310;9.642;2023-03-26T19:53:02;2.40;;;0.90;;
78648;SDS011;67962;47.310;9.642;2023-03-26T19:56:43;2.03;;;1.20;;
78648;SDS011;67962;47.310;9.642;2023-03-26T19:58:39;3.03;;;1.27;;
78648;SDS011;67962;47.310;9.642;2023-03-26T20:01:25;1.63;;;0.90;;
78648;SDS011;67962;47.310;9.642;2023-03-26T20:04:00;0.80;;;0.65;;
78648;SDS011;67962;47.310;9.642;2023-03-26T20:06:31;4.70;;;0.60;;
78648;SDS011;67962;47.310;9.642;2023-03-26T20:08:58;1.92;;;0.82;;
78648;SDS011;67962;47.310;9.642;2023-03-26T20:11:30;4.97;;;0.95;;
78648;SDS011;67962;47.310;9.642;2023-03-26T20:13:59;1.90;;;1.05;;
78648;SDS011;67962;47.310;9.642;2023-03-26T20:16:29;1.77;;;0.90;;
78648;SDS011;67962;47.310;9.642;2023-03-26T20:18:57;1.38;;;0.80;;
78648;SDS011;67962;47.310;9.642;2023-03-26T20:21:26;3.25;;;1.40;;
78648;SDS011;67962;47.310;9.642;2023-03-26T20:23:53;2.67;;;1.30;;
78648;SDS011;67962;47.310;9.642;2023-03-26T20:26:21;3.42;;;1.27;;
78648;SDS011;67962;47.310;9.642;2023-03-26T20:28:48;2.35;;;1.10;;
78648;SDS011;67962;47.310;9.642;2023-03-26T20:31:19;7.03;;;1.17;;
78648;SDS011;67962;47.310;9.642;2023-03-26T20:33:48;1.95;;;1.10;;
78648;SDS011;67962;47.310;9.642;2023-03-26T20:36:16;1.92;;;1.00;;
78648;SDS011;67962;47.310;9.642;2023-03-26T20:38:44;3.70;;;0.90;;
78648;SDS011;67962;47.310;9.642;2023-03-26T20:41:11;1.67;;;1.08;;
78648;SDS011;67962;47.310;9.642;2023-03-26T20:43:39;1.73;;;1.10;;
78648;SDS011;67962;47.310;9.642;2023-03-26T20:46:14;1.63;;;1.13;;
78648;SDS011;67962;47.310;9.642;2023-03-26T20:48:43;2.38;;;1.13;;
78648;SDS011;67962;47.310;9.642;2023-03-26T20:51:10;2.40;;;1.38;;
78648;SDS011;67962;47.310;9.642;2023-03-26T20:53:39;3.10;;;1.30;;
78648;SDS011;67962;47.310;9.642;2023-03-26T20:56:13;2.13;;;1.25;;
78648;SDS011;67962;47.310;9.642;2023-03-26T20:58:41;2.42;;;1.20;;
78648;SDS011;67962;47.310;9.642;2023-03-26T21:01:09;1.73;;;0.98;;
78648;SDS011;67962;47.310;9.642;2023-03-26T21:03:36;2.03;;;1.15;;
78648;SDS011;67962;47.310;9.642;2023-03-26T21:06:03;3.00;;;0.90;;
78648;SDS011;67962;47.310;9.642;2023-03-26T21:08:34;1.45;;;1.08;;
78648;SDS011;67962;47.310;9.642;2023-03-26T21:11:02;1.77;;;1.10;;
78648;SDS011;67962;47.310;9.642;2023-03-26T21:13:36;2.33;;;1.50;;
78648;SDS011;67962;47.310;9.642;2023-03-26T21:16:03;2.60;;;1.10;;
78648;SDS011;67962;47.310;9.642;2023-03-26T21:18:30;1.17;;;0.98;;
78648;SDS011;67962;47.310;9.642;2023-03-26T21:21:30;1.85;;;1.20;;
78648;SDS011;67962;47.310;9.642;2023-03-26T21:23:54;1.25;;;1.00;;
78648;SDS011;67962;47.310;9.642;2023-03-26T21:29:30;3.78;;;1.48;;
78648;SDS011;67962;47.310;9.642;2023-03-26T21:32:02;3.08;;;1.30;;
78648;SDS011;67962;47.310;9.642;2023-03-26T21:34:29;3.35;;;1.20;;
78648;SDS011;67962;47.310;9.642;2023-03-26T21:36:57;2.15;;;1.00;;
78648;SDS011;67962;47.310;9.642;2023-03-26T21:39:24;1.90;;;1.00;;
78648;SDS011;67962;47.310;9.642;2023-03-26T21:41:50;1.13;;;0.82;;
78648;SDS011;67962;47.310;9.642;2023-03-26T21:44:16;1.40;;;1.08;;
78648;SDS011;67962;47.310;9.642;2023-03-26T21:46:44;2.65;;;1.40;;
78648;SDS011;67962;47.310;9.642;2023-03-26T21:49:12;3.03;;;1.55;;
78648;SDS011;67962;47.310;9.642;2023-03-26T21:51:40;3.80;;;1.40;;
78648;SDS011;67962;47.310;9.642;2023-03-26T21:54:14;3.67;;;1.30;;
78648;SDS011;67962;47.310;9.642;2023-03-26T21:56:49;3.35;;;1.25;;
78648;SDS011;67962;47.310;9.642;2023-03-26T22:07:55;1.77;;;1.05;;
78648;SDS011;67962;47.310;9.642;2023-03-26T22:10:22;5.55;;;1.20;;
78648;SDS011;67962;47.310;9.642;2023-03-26T22:12:48;5.07;;;1.23;;
78648;SDS011;67962;47.310;9.642;2023-03-26T22:15:14;2.97;;;1.63;;
78648;SDS011;67962;47.310;9.642;2023-03-26T22:17:43;10.93;;;1.90;;
78648;SDS011;67962;47.310;9.642;2023-03-26T22:20:11;18.85;;;3.20;;
78648;SDS011;67962;47.310;9.642;2023-03-26T22:22:38;7.07;;;2.13;;
78648;SDS011;67962;47.310;9.642;2023-03-26T22:25:06;8.85;;;2.40;;
78648;SDS011;67962;47.310;9.642;2023-03-26T22:27:34;4.45;;;1.85;;
78648;SDS011;67962;47.310;9.642;2023-03-26T22:30:00;3.97;;;1.42;;
78648;SDS011;67962;47.310;9.642;2023-03-26T22:32:25;2.67;;;1.33;;